Time;durP1;ratioP1;P1;durP2;ratioP2;P2;SDS_P1;SDS_P2;PMS_P1;PMS_P2;Temp;Humidity;BMP_temperature;BMP_pressure;BME280_temperature;BME280_humidity;BME280_pressure;Samples;Min_cycle;Max_cycle;Signal;HPM_P1;HPM_P2
2022/11/08 00:01:43;;;;;;;2.10;0.40;;;12.80;93.70;;;;;;4892534;29;20518;-82
2022/11/08 00:04:12;;;;;;;2.45;0.60;;;12.80;93.40;;;;;;4927649;29;20051;-85
2022/11/08 00:14:59;;;;;;;1.45;0.40;;;12.70;93.40;;;;;;4934564;29;20044;-86
2022/11/08 00:17:29;;;;;;;1.67;0.40;;;12.70;93.50;;;;;;4957521;28;20036;-92
2022/11/08 00:20:00;;;;;;;3.28;0.40;;;12.70;93.50;;;;;;4946924;28;20150;-89
2022/11/08 00:22:30;;;;;;;2.17;0.52;;;12.60;93.50;;;;;;4940571;29;20080;-87
2022/11/08 00:25:00;;;;;;;2.60;0.40;;;12.60;93.50;;;;;;4909962;29;20516;-86
2022/11/08 00:27:28;;;;;;;3.63;0.70;;;12.60;93.60;;;;;;4951919;28;20048;-89
2022/11/08 00:29:55;;;;;;;2.03;0.40;;;12.60;93.60;;;;;;4925900;29;20044;-93
2022/11/08 00:32:25;;;;;;;2.92;0.40;;;12.60;93.60;;;;;;4923744;29;20040;-91
2022/11/08 00:34:55;;;;;;;2.92;0.40;;;12.60;93.60;;;;;;4950041;28;20149;-86
2022/11/08 00:37:22;;;;;;;2.47;0.45;;;12.60;93.60;;;;;;4931918;29;20056;-82
2022/11/08 00:39:53;;;;;;;3.58;0.40;;;12.50;93.60;;;;;;4915438;29;20054;-89
2022/11/08 00:42:20;;;;;;;2.67;0.47;;;12.50;93.70;;;;;;4938656;29;20048;-83
2022/11/08 00:44:47;;;;;;;1.77;0.40;;;12.40;93.70;;;;;;4921278;29;20127;-88
2022/11/08 00:47:15;;;;;;;4.40;0.50;;;12.40;93.80;;;;;;4919414;29;20063;-81
2022/11/08 00:49:42;;;;;;;3.05;0.47;;;12.30;93.80;;;;;;4932777;29;20040;-90
2022/11/08 00:52:12;;;;;;;2.88;0.45;;;12.30;93.90;;;;;;4931807;29;20052;-90
2022/11/08 00:54:40;;;;;;;1.45;0.40;;;12.20;93.90;;;;;;4915740;29;20048;-87
2022/11/08 00:57:07;;;;;;;2.05;0.50;;;12.20;93.90;;;;;;4948015;29;20048;-83
2022/11/08 00:59:34;;;;;;;1.40;0.50;;;12.20;94.00;;;;;;4917097;29;20052;-84
2022/11/08 01:02:04;;;;;;;3.97;0.60;;;12.10;94.30;;;;;;4918075;29;20052;-82
2022/11/08 01:04:34;;;;;;;1.80;0.40;;;12.10;94.00;;;;;;4916397;29;20048;-79
2022/11/08 01:07:04;;;;;;;1.83;0.50;;;12.10;94.00;;;;;;4947578;29;20048;-79
2022/11/08 01:09:31;;;;;;;3.50;0.40;;;12.10;94.00;;;;;;4915912;29;20127;-79
2022/11/08 01:11:58;;;;;;;1.60;0.40;;;12.10;94.00;;;;;;4916019;29;20059;-79
2022/11/08 01:14:25;;;;;;;2.13;0.68;;;12.10;94.00;;;;;;4931308;29;20589;-79
2022/11/08 01:16:52;;;;;;;2.33;0.82;;;12.00;94.00;;;;;;4916087;29;20040;-78
2022/11/08 01:19:19;;;;;;;2.90;0.50;;;12.00;94.10;;;;;;4915939;29;20496;-78
2022/11/08 01:21:46;;;;;;;1.60;0.30;;;12.00;94.10;;;;;;4915973;29;20072;-79
2022/11/08 01:24:13;;;;;;;2.53;0.40;;;12.00;94.10;;;;;;4947282;29;20082;-78
2022/11/08 01:26:40;;;;;;;2.90;0.47;;;12.00;94.20;;;;;;4915522;29;20052;-79
2022/11/08 01:29:07;;;;;;;1.42;0.40;;;12.00;94.20;;;;;;4932103;29;20044;-79
2022/11/08 01:31:34;;;;;;;1.92;0.30;;;12.00;94.20;;;;;;4915989;29;20032;-79
2022/11/08 01:34:01;;;;;;;5.05;0.43;;;12.00;94.20;;;;;;4919689;29;20135;-79
2022/11/08 01:36:29;;;;;;;3.05;0.52;;;12.00;94.20;;;;;;4919877;29;20051;-79
2022/11/08 01:38:56;;;;;;;2.75;0.50;;;12.00;94.20;;;;;;4947775;29;20115;-79
2022/11/08 01:41:25;;;;;;;2.78;0.45;;;12.00;94.20;;;;;;4931652;29;20422;-79
2022/11/08 01:43:54;;;;;;;2.70;0.40;;;11.90;94.20;;;;;;4915819;29;20048;-79
2022/11/08 01:46:27;;;;;;;2.30;0.60;;;11.90;94.30;;;;;;4915754;29;20383;-79
2022/11/08 01:49:27;;;;;;;0.95;0.30;;;11.80;94.30;;;;;;4946929;28;20051;-78
2022/11/08 01:52:29;;;;;;;3.70;0.50;;;11.80;94.30;;;;;;4905043;29;20143;-78
2022/11/08 01:55:25;;;;;;;2.55;0.47;;;11.80;94.40;;;;;;4900146;29;20114;-85
2022/11/08 01:58:06;;;;;;;1.75;0.50;;;11.70;94.40;;;;;;4901902;29;20048;-85
2022/11/08 02:00:36;;;;;;;1.85;0.30;;;11.60;94.40;;;;;;4931815;29;20135;-86
2022/11/08 02:03:06;;;;;;;1.95;0.30;;;11.60;94.50;;;;;;4912457;29;20055;-84
2022/11/08 02:05:33;;;;;;;2.92;0.50;;;11.60;94.50;;;;;;4914871;29;20421;-84
2022/11/08 02:08:18;;;;;;;2.92;0.30;;;11.50;94.60;;;;;;4916922;29;20174;-84
2022/11/08 02:10:48;;;;;;;0.73;0.30;;;11.50;94.60;;;;;;4932042;29;20104;-78
2022/11/08 02:13:23;;;;;;;4.88;0.40;;;11.50;94.60;;;;;;4918749;29;20044;-78
2022/11/08 02:15:50;;;;;;;3.22;0.30;;;11.40;94.60;;;;;;4931030;29;20135;-79
2022/11/08 02:18:20;;;;;;;2.45;0.38;;;11.40;94.70;;;;;;4936256;29;20047;-78
2022/11/08 02:20:59;;;;;;;1.73;0.35;;;11.40;94.70;;;;;;4922458;29;20083;-79
2022/11/08 02:23:46;;;;;;;0.93;0.40;;;11.40;94.70;;;;;;4934456;29;20055;-79
2022/11/08 02:26:15;;;;;;;3.30;0.60;;;11.30;94.70;;;;;;4946978;29;20087;-79
2022/11/08 02:28:44;;;;;;;1.42;0.40;;;11.30;94.70;;;;;;4915147;29;20040;-79
2022/11/08 02:31:13;;;;;;;2.42;0.30;;;11.30;94.80;;;;;;4915274;29;20051;-77
2022/11/08 02:33:40;;;;;;;1.45;0.43;;;11.30;94.80;;;;;;4934102;29;20504;-79
2022/11/08 02:36:13;;;;;;;1.60;0.40;;;11.30;94.80;;;;;;4931018;29;20107;-79
2022/11/08 02:38:45;;;;;;;3.65;0.40;;;11.30;94.80;;;;;;4930541;29;20120;-79
2022/11/08 02:41:12;;;;;;;0.90;0.30;;;11.20;94.80;;;;;;4915316;29;20091;-79
2022/11/08 02:43:39;;;;;;;2.47;0.50;;;11.20;94.80;;;;;;4914931;29;20489;-84
2022/11/08 02:46:06;;;;;;;1.55;0.50;;;11.20;94.80;;;;;;4931854;29;20052;-85
2022/11/08 02:48:33;;;;;;;2.40;0.50;;;11.20;94.80;;;;;;4915499;29;20050;-85
2022/11/08 02:51:00;;;;;;;4.13;0.77;;;11.20;94.80;;;;;;4899908;29;20044;-84
2022/11/08 02:53:27;;;;;;;3.20;0.65;;;11.20;94.90;;;;;;4915800;29;20040;-83
2022/11/08 02:55:54;;;;;;;1.38;0.55;;;11.20;94.80;;;;;;4915618;29;20052;-85
2022/11/08 02:58:22;;;;;;;2.25;0.70;;;11.30;94.90;;;;;;4927272;29;20044;-85
2022/11/08 03:00:49;;;;;;;1.70;0.50;;;11.30;94.80;;;;;;4941595;29;20162;-84
2022/11/08 03:03:16;;;;;;;3.22;0.60;;;11.30;94.80;;;;;;4899683;29;20051;-84
2022/11/08 03:05:43;;;;;;;1.63;0.50;;;11.30;94.80;;;;;;4918346;29;20564;-85
2022/11/08 03:08:10;;;;;;;2.53;0.50;;;11.30;94.80;;;;;;4903008;29;20061;-85
2022/11/08 03:10:37;;;;;;;1.73;0.40;;;11.30;94.80;;;;;;4918748;29;20135;-85
2022/11/08 03:13:05;;;;;;;3.40;0.65;;;11.30;94.90;;;;;;4933882;29;20078;-84
2022/11/08 03:15:32;;;;;;;2.40;0.63;;;11.30;94.90;;;;;;4934438;29;20044;-83
2022/11/08 03:18:01;;;;;;;2.38;0.50;;;11.30;94.80;;;;;;4934221;29;20044;-85
2022/11/08 03:20:28;;;;;;;1.23;0.45;;;11.30;94.80;;;;;;4918499;29;20052;-85
2022/11/08 03:23:00;;;;;;;1.17;0.32;;;11.30;94.80;;;;;;4934785;29;20044;-85
2022/11/08 03:25:28;;;;;;;2.13;0.75;;;11.30;94.90;;;;;;4918154;29;20047;-85
2022/11/08 03:28:04;;;;;;;0.85;0.40;;;11.30;94.90;;;;;;4918362;29;20072;-84
2022/11/08 03:30:31;;;;;;;2.47;0.40;;;11.30;94.90;;;;;;4934696;29;20139;-83
2022/11/08 03:32:58;;;;;;;2.28;0.50;;;11.30;94.90;;;;;;4886914;29;20572;-84
2022/11/08 03:35:25;;;;;;;1.80;0.50;;;11.20;94.90;;;;;;4933964;29;20523;-85
2022/11/08 03:37:54;;;;;;;2.58;0.55;;;11.20;94.90;;;;;;4919461;29;20056;-85
2022/11/08 03:40:22;;;;;;;3.20;0.50;;;11.20;95.00;;;;;;4902535;29;20052;-84
2022/11/08 03:42:49;;;;;;;1.77;0.50;;;11.20;94.90;;;;;;4936442;29;20527;-84
2022/11/08 03:45:16;;;;;;;2.80;0.60;;;11.20;94.90;;;;;;4948921;29;20099;-84
2022/11/08 03:47:45;;;;;;;2.42;0.60;;;11.20;95.00;;;;;;4922340;29;20048;-84
2022/11/08 03:50:14;;;;;;;1.85;0.57;;;11.20;94.90;;;;;;4905887;29;20052;-85
2022/11/08 03:52:53;;;;;;;2.22;0.60;;;11.20;95.00;;;;;;4933619;29;20052;-84
2022/11/08 03:55:23;;;;;;;0.93;0.55;;;11.30;94.90;;;;;;4933333;29;20048;-84
2022/11/08 03:57:51;;;;;;;2.17;0.40;;;11.20;94.90;;;;;;4917812;29;20068;-84
2022/11/08 04:00:21;;;;;;;1.00;0.40;;;11.20;94.90;;;;;;4917962;29;20107;-84
2022/11/08 04:02:48;;;;;;;0.88;0.40;;;11.20;95.00;;;;;;4950895;28;20048;-85
2022/11/08 04:05:19;;;;;;;0.73;0.30;;;11.10;95.00;;;;;;4918115;29;20139;-84
2022/11/08 04:07:46;;;;;;;0.60;0.20;;;11.10;95.00;;;;;;4933384;29;20056;-86
2022/11/08 04:10:13;;;;;;;1.15;0.30;;;11.00;95.10;;;;;;4949533;29;20046;-84
2022/11/08 04:15:29;;;;;;;1.20;0.43;;;11.00;95.10;;;;;;4930654;29;20044;-85
2022/11/08 04:23:33;;;;;;;3.33;0.50;;;11.00;95.10;;;;;;4927210;29;20121;-84
2022/11/08 04:26:02;;;;;;;4.35;0.63;;;11.00;95.10;;;;;;4901600;29;20094;-78
2022/11/08 04:28:31;;;;;;;1.10;0.40;;;11.00;95.10;;;;;;4932475;29;20060;-79
2022/11/08 04:31:02;;;;;;;1.75;0.45;;;11.00;95.10;;;;;;4916958;29;20044;-78
2022/11/08 04:33:29;;;;;;;1.45;0.40;;;10.90;95.00;;;;;;4901418;29;20044;-79
2022/11/08 04:36:07;;;;;;;1.70;0.40;;;10.90;95.10;;;;;;4932523;29;20048;-79
2022/11/08 04:38:34;;;;;;;1.70;0.40;;;10.90;95.10;;;;;;4948128;29;20072;-78
2022/11/08 04:41:21;;;;;;;1.73;0.40;;;10.90;95.10;;;;;;4901177;29;20043;-78
2022/11/08 04:43:50;;;;;;;3.90;0.80;;;10.90;95.10;;;;;;4932541;29;20052;-79
2022/11/08 04:46:19;;;;;;;1.58;0.30;;;10.90;95.00;;;;;;4931916;29;20048;-79
2022/11/08 04:48:49;;;;;;;0.82;0.22;;;10.90;95.00;;;;;;4931423;29;20048;-79
2022/11/08 04:51:19;;;;;;;1.92;0.30;;;10.90;95.00;;;;;;4940156;29;20390;-79
2022/11/08 04:53:46;;;;;;;0.70;0.20;;;10.90;95.00;;;;;;4930360;29;20079;-79
2022/11/08 04:56:15;;;;;;;1.38;0.30;;;10.90;95.00;;;;;;4903774;29;20044;-79
2022/11/08 04:58:45;;;;;;;1.33;0.40;;;10.90;95.00;;;;;;4932334;29;20580;-79
2022/11/08 05:01:17;;;;;;;0.40;0.20;;;10.80;95.00;;;;;;4907235;29;20040;-79
2022/11/08 05:03:46;;;;;;;0.98;0.30;;;10.80;95.10;;;;;;4947810;29;20075;-79
2022/11/08 05:06:19;;;;;;;3.90;0.90;;;10.80;95.10;;;;;;4931713;29;20158;-78
2022/11/08 05:08:46;;;;;;;1.90;0.32;;;10.80;95.00;;;;;;4916005;29;20083;-78
2022/11/08 05:11:19;;;;;;;1.15;0.40;;;10.80;95.00;;;;;;4931635;29;20119;-78
2022/11/08 05:13:47;;;;;;;0.70;0.20;;;10.80;95.00;;;;;;4916031;29;20079;-79
2022/11/08 05:16:17;;;;;;;0.95;0.30;;;10.80;95.00;;;;;;4915948;29;20044;-79
2022/11/08 05:18:44;;;;;;;0.80;0.20;;;10.80;95.00;;;;;;4947941;28;20143;-78
2022/11/08 05:24:00;;;;;;;2.38;0.25;;;10.80;95.00;;;;;;4908876;29;20134;-78
2022/11/08 05:26:27;;;;;;;1.42;0.30;;;10.80;95.00;;;;;;4915532;29;20505;-79
2022/11/08 05:28:55;;;;;;;2.38;0.70;;;10.80;95.00;;;;;;4915823;29;20047;-78
2022/11/08 05:31:24;;;;;;;2.08;0.45;;;10.70;94.90;;;;;;4931617;29;20067;-79
2022/11/08 05:33:51;;;;;;;1.45;0.30;;;10.80;95.00;;;;;;4931007;29;20421;-78
2022/11/08 05:36:19;;;;;;;1.10;0.40;;;10.80;95.00;;;;;;4930507;29;20146;-80
2022/11/08 05:38:46;;;;;;;1.75;0.40;;;10.80;95.00;;;;;;4946833;29;20083;-79
2022/11/08 05:41:15;;;;;;;1.55;0.40;;;10.80;94.90;;;;;;4931137;29;20092;-78
2022/11/08 05:43:45;;;;;;;1.33;0.30;;;10.70;94.90;;;;;;4915394;29;20454;-78
2022/11/08 05:46:13;;;;;;;1.85;0.50;;;10.70;94.90;;;;;;4915553;29;20048;-78
2022/11/08 05:48:45;;;;;;;1.27;0.55;;;10.70;95.00;;;;;;4915264;29;20048;-79
2022/11/08 05:51:14;;;;;;;2.30;0.45;;;10.70;95.00;;;;;;4930641;29;20035;-78
2022/11/08 05:53:41;;;;;;;1.23;0.40;;;10.60;95.00;;;;;;4914696;29;20112;-80
2022/11/08 05:56:08;;;;;;;1.92;0.50;;;10.70;95.00;;;;;;4930912;29;20096;-78
2022/11/08 05:58:36;;;;;;;2.25;0.52;;;10.70;94.90;;;;;;4915591;29;20123;-78
2022/11/08 06:01:08;;;;;;;1.83;0.40;;;10.70;94.90;;;;;;4915293;29;20072;-79
2022/11/08 06:03:35;;;;;;;1.90;0.68;;;10.70;94.80;;;;;;4945921;29;20048;-78
2022/11/08 06:06:08;;;;;;;1.25;0.40;;;10.70;94.80;;;;;;4944857;28;20055;-79
2022/11/08 06:08:36;;;;;;;0.88;0.35;;;10.70;94.80;;;;;;4915099;29;20056;-78
2022/11/08 06:11:05;;;;;;;1.23;0.40;;;10.70;94.80;;;;;;4915155;29;20041;-79
2022/11/08 06:13:32;;;;;;;1.17;0.40;;;10.70;94.80;;;;;;4945507;28;20068;-79
2022/11/08 06:16:01;;;;;;;1.80;0.68;;;10.70;94.80;;;;;;4915085;29;20127;-79
2022/11/08 06:18:30;;;;;;;2.75;0.40;;;10.70;94.80;;;;;;4932809;29;20044;-79
2022/11/08 06:21:01;;;;;;;3.53;0.55;;;10.70;94.80;;;;;;4920383;29;20075;-78
2022/11/08 06:23:32;;;;;;;1.83;0.55;;;10.70;94.80;;;;;;4941136;28;20123;-80
2022/11/08 06:25:59;;;;;;;1.35;0.50;;;10.70;94.80;;;;;;4916325;29;20116;-80
2022/11/08 06:28:26;;;;;;;1.08;0.60;;;10.70;94.80;;;;;;4941059;28;20044;-80
2022/11/08 06:30:56;;;;;;;1.08;0.40;;;10.70;94.80;;;;;;4947354;28;20100;-78
2022/11/08 06:33:24;;;;;;;3.42;0.47;;;10.70;94.80;;;;;;4930734;29;20146;-81
2022/11/08 06:35:51;;;;;;;0.90;0.40;;;10.70;94.70;;;;;;4911578;29;20064;-80
2022/11/08 06:38:18;;;;;;;1.65;0.73;;;10.70;94.70;;;;;;4897274;29;20153;-80
2022/11/08 06:40:45;;;;;;;1.00;0.30;;;10.70;94.70;;;;;;4934841;29;20457;-78
2022/11/08 06:43:12;;;;;;;1.77;0.40;;;10.70;94.80;;;;;;4918868;29;20052;-79
2022/11/08 06:45:45;;;;;;;2.13;0.60;;;10.70;94.70;;;;;;4948912;29;20044;-81
2022/11/08 06:48:12;;;;;;;1.02;0.52;;;10.70;94.70;;;;;;4934514;29;20059;-79
2022/11/08 06:50:43;;;;;;;2.08;0.60;;;10.70;94.70;;;;;;4918658;29;20074;-79
2022/11/08 06:53:12;;;;;;;1.25;0.47;;;10.80;94.70;;;;;;4934549;29;20103;-78
2022/11/08 06:55:39;;;;;;;2.85;0.65;;;10.80;94.60;;;;;;4934245;29;20040;-78
2022/11/08 06:58:06;;;;;;;1.33;0.50;;;10.80;94.60;;;;;;4919203;29;20112;-79
2022/11/08 07:00:33;;;;;;;1.80;0.52;;;10.90;94.60;;;;;;4934492;29;20044;-80
2022/11/08 07:03:02;;;;;;;0.63;0.40;;;10.80;94.50;;;;;;4905596;29;20466;-79
2022/11/08 07:05:31;;;;;;;0.77;0.38;;;10.80;94.50;;;;;;4918404;29;20119;-78
2022/11/08 07:08:00;;;;;;;2.13;0.57;;;10.80;94.50;;;;;;4918021;29;20425;-78
2022/11/08 07:10:29;;;;;;;2.75;0.60;;;10.80;94.50;;;;;;4948889;29;20103;-80
2022/11/08 07:13:12;;;;;;;1.90;0.50;;;10.90;94.50;;;;;;4917984;29;20074;-80
2022/11/08 07:15:41;;;;;;;1.15;0.60;;;10.90;94.50;;;;;;4934007;29;20324;-79
2022/11/08 07:18:10;;;;;;;2.05;0.55;;;10.90;94.50;;;;;;4933428;29;20079;-80
2022/11/08 07:20:38;;;;;;;1.42;0.50;;;10.90;94.50;;;;;;4949759;29;20048;-80
2022/11/08 07:23:05;;;;;;;2.67;0.68;;;10.90;94.50;;;;;;4886908;29;20414;-79
2022/11/08 07:25:33;;;;;;;2.67;0.80;;;10.90;94.50;;;;;;4933742;29;20096;-79
2022/11/08 07:28:03;;;;;;;2.63;0.75;;;10.90;94.50;;;;;;4918042;29;20387;-78
2022/11/08 07:30:31;;;;;;;1.00;0.50;;;10.90;94.40;;;;;;4933647;29;20131;-79
2022/11/08 07:32:58;;;;;;;1.70;0.60;;;10.90;94.40;;;;;;4933269;29;20064;-78
2022/11/08 07:35:27;;;;;;;0.75;0.40;;;10.90;94.40;;;;;;4930030;29;20098;-80
2022/11/08 07:37:54;;;;;;;1.85;0.40;;;11.00;94.40;;;;;;4917639;29;20146;-79
2022/11/08 07:40:21;;;;;;;1.08;0.50;;;10.90;94.40;;;;;;4917624;29;20083;-79
2022/11/08 07:42:49;;;;;;;2.03;0.90;;;11.00;94.40;;;;;;4933340;29;20040;-79
2022/11/08 07:45:36;;;;;;;0.60;0.40;;;11.00;94.40;;;;;;4916843;29;20075;-78
2022/11/08 07:48:06;;;;;;;0.98;0.43;;;11.00;94.30;;;;;;4933479;29;20048;-78
2022/11/08 07:50:40;;;;;;;1.67;0.68;;;11.10;94.40;;;;;;4901808;29;20079;-78
2022/11/08 07:53:07;;;;;;;4.32;0.60;;;11.10;94.20;;;;;;4932966;29;20036;-79
2022/11/08 07:55:39;;;;;;;0.88;0.43;;;11.20;94.20;;;;;;4932774;29;20074;-79
2022/11/08 07:58:08;;;;;;;2.50;0.70;;;11.20;94.10;;;;;;4932948;29;20044;-79
2022/11/08 08:00:37;;;;;;;0.77;0.40;;;11.20;94.10;;;;;;4915772;29;20071;-79
2022/11/08 08:03:07;;;;;;;1.42;0.60;;;11.30;94.10;;;;;;4932955;29;20044;-78
2022/11/08 08:05:37;;;;;;;1.80;0.50;;;11.30;94.00;;;;;;4917135;29;20048;-79
2022/11/08 08:08:04;;;;;;;1.17;0.60;;;11.40;94.00;;;;;;4932743;29;20048;-78
2022/11/08 08:10:32;;;;;;;3.00;0.60;;;11.40;93.90;;;;;;4901784;29;20067;-86
2022/11/08 08:13:00;;;;;;;2.17;0.77;;;11.40;93.80;;;;;;4947794;29;20397;-85
2022/11/08 08:15:27;;;;;;;2.92;0.85;;;11.50;93.80;;;;;;4933705;29;20044;-85
2022/11/08 08:17:54;;;;;;;1.05;0.50;;;11.50;93.80;;;;;;4933298;29;20489;-86
2022/11/08 08:20:21;;;;;;;2.42;0.57;;;11.60;93.70;;;;;;4918338;29;20044;-87
2022/11/08 08:22:51;;;;;;;2.03;0.40;;;11.60;93.70;;;;;;4917807;29;20044;-86
2022/11/08 08:25:18;;;;;;;2.20;0.75;;;11.60;93.70;;;;;;4902296;29;20075;-86
2022/11/08 08:27:50;;;;;;;2.45;0.40;;;11.70;93.60;;;;;;4916895;29;20057;-84
2022/11/08 08:30:18;;;;;;;1.33;0.50;;;11.80;93.60;;;;;;4927206;29;20080;-85
2022/11/08 08:32:47;;;;;;;1.30;0.52;;;11.80;93.50;;;;;;4948934;29;20067;-86
2022/11/08 08:35:35;;;;;;;2.40;0.50;;;11.90;93.50;;;;;;4930371;29;20139;-86
2022/11/08 08:38:04;;;;;;;1.23;0.50;;;12.00;93.40;;;;;;4922696;29;20044;-86
2022/11/08 08:40:34;;;;;;;0.95;0.30;;;12.00;93.30;;;;;;4933704;29;20449;-85
2022/11/08 08:43:03;;;;;;;2.75;0.60;;;12.10;93.20;;;;;;4933794;29;20059;-85
2022/11/08 08:45:32;;;;;;;1.25;0.47;;;12.20;93.10;;;;;;4901578;29;20052;-85
2022/11/08 08:48:00;;;;;;;1.70;0.65;;;12.30;93.00;;;;;;4901992;29;20056;-86
2022/11/08 08:50:29;;;;;;;3.88;0.60;;;12.40;92.90;;;;;;4950139;29;20105;-85
2022/11/08 08:53:02;;;;;;;1.48;0.50;;;12.50;92.70;;;;;;4886872;29;20059;-85
2022/11/08 08:55:30;;;;;;;1.58;0.40;;;12.60;92.60;;;;;;4917201;29;20482;-86
2022/11/08 08:57:57;;;;;;;1.05;0.35;;;12.60;92.50;;;;;;4886065;29;20044;-88
2022/11/08 09:00:25;;;;;;;0.90;0.40;;;12.70;92.50;;;;;;4914806;29;20493;-84
2022/11/08 09:03:12;;;;;;;0.90;0.40;;;12.80;92.30;;;;;;4884877;29;20047;-83
2022/11/08 09:05:42;;;;;;;1.25;0.50;;;12.80;92.20;;;;;;4929850;29;20401;-83
2022/11/08 09:08:10;;;;;;;1.70;0.60;;;12.90;92.20;;;;;;4898056;29;20041;-82
2022/11/08 09:10:37;;;;;;;2.63;0.60;;;13.00;91.70;;;;;;4909734;29;20048;-84
2022/11/08 09:13:04;;;;;;;3.42;0.52;;;13.00;91.20;;;;;;4916404;29;20044;-84
2022/11/08 09:15:32;;;;;;;3.30;0.85;;;13.10;91.10;;;;;;4932292;29;20564;-83
2022/11/08 09:17:59;;;;;;;3.03;0.80;;;13.20;91.20;;;;;;4916417;29;20489;-85
2022/11/08 09:20:29;;;;;;;1.92;0.55;;;13.20;91.10;;;;;;4916433;29;20131;-83
2022/11/08 09:23:01;;;;;;;2.05;0.80;;;13.20;90.90;;;;;;4916434;29;20405;-84
2022/11/08 09:25:28;;;;;;;1.70;0.70;;;13.30;90.90;;;;;;4916083;29;20047;-83
2022/11/08 09:27:55;;;;;;;1.55;0.60;;;13.30;90.70;;;;;;4929797;29;20045;-83
2022/11/08 09:30:23;;;;;;;1.67;0.82;;;13.40;90.70;;;;;;4916017;29;20430;-84
2022/11/08 09:32:54;;;;;;;6.80;0.90;;;13.40;90.70;;;;;;4914496;29;20040;-84
2022/11/08 09:35:32;;;;;;;0.80;0.30;;;13.50;90.40;;;;;;4935017;29;20066;-86
2022/11/08 09:38:00;;;;;;;1.15;0.40;;;13.50;90.50;;;;;;4885169;29;20398;-84
2022/11/08 09:40:36;;;;;;;2.95;0.50;;;13.60;90.40;;;;;;4900358;29;20067;-85
2022/11/08 09:43:26;;;;;;;1.77;0.88;;;13.70;90.40;;;;;;4916164;29;20056;-83
2022/11/08 09:45:56;;;;;;;1.48;0.60;;;13.70;90.10;;;;;;4931513;29;20078;-85
2022/11/08 09:48:37;;;;;;;2.25;0.50;;;13.70;90.20;;;;;;4900787;29;20075;-83
2022/11/08 09:51:17;;;;;;;1.38;0.50;;;13.80;90.00;;;;;;4931286;29;20568;-80
2022/11/08 09:53:56;;;;;;;1.80;0.50;;;13.90;89.90;;;;;;4947270;29;20118;-80
2022/11/08 09:56:33;;;;;;;1.98;0.57;;;13.90;90.00;;;;;;4915598;29;20036;-79
2022/11/08 09:59:03;;;;;;;1.42;0.60;;;14.00;90.00;;;;;;4904466;29;20107;-79
2022/11/08 10:01:33;;;;;;;1.55;0.32;;;14.00;89.90;;;;;;4931453;29;20420;-78
2022/11/08 10:04:22;;;;;;;2.45;0.50;;;14.00;89.70;;;;;;4914903;29;20123;-78
2022/11/08 10:06:57;;;;;;;1.58;0.60;;;14.10;89.70;;;;;;4930498;29;20052;-80
2022/11/08 10:09:53;;;;;;;1.45;0.40;;;14.00;89.60;;;;;;4941822;28;20569;-81
2022/11/08 10:12:29;;;;;;;1.42;0.22;;;14.10;89.60;;;;;;4931427;29;20048;-87
2022/11/08 10:15:05;;;;;;;1.48;0.40;;;14.10;89.50;;;;;;4933985;29;20485;-84
2022/11/08 10:17:38;;;;;;;2.67;0.95;;;14.20;89.50;;;;;;4947191;29;20051;-84
2022/11/08 10:20:23;;;;;;;0.98;0.40;;;14.20;89.40;;;;;;4955207;29;20536;-86
2022/11/08 10:23:06;;;;;;;1.35;0.55;;;14.20;88.80;;;;;;4931771;29;20052;-86
2022/11/08 10:25:41;;;;;;;1.77;0.40;;;14.20;88.90;;;;;;4951933;29;20465;-86
2022/11/08 10:28:31;;;;;;;2.00;0.38;;;14.20;89.00;;;;;;4933047;29;20056;-86
2022/11/08 10:30:59;;;;;;;1.55;0.60;;;14.20;89.00;;;;;;4919850;29;20047;-85
2022/11/08 10:33:40;;;;;;;2.17;0.52;;;14.20;88.10;;;;;;4919623;29;20044;-85
2022/11/08 10:36:23;;;;;;;2.22;0.50;;;14.30;87.90;;;;;;4919585;29;20044;-83
2022/11/08 10:39:07;;;;;;;1.70;0.40;;;14.30;88.00;;;;;;4935579;29;20067;-85
2022/11/08 10:42:12;;;;;;;1.75;0.65;;;14.30;88.00;;;;;;4947678;29;20497;-86
2022/11/08 10:44:40;;;;;;;2.53;0.73;;;14.40;87.80;;;;;;4930584;29;20059;-86
2022/11/08 10:47:19;;;;;;;1.75;0.55;;;14.40;87.20;;;;;;4933482;29;20580;-86
2022/11/08 10:49:46;;;;;;;1.08;0.40;;;14.50;87.00;;;;;;4951239;29;20128;-86
2022/11/08 10:52:16;;;;;;;1.85;0.50;;;14.60;86.90;;;;;;4919040;29;20048;-86
2022/11/08 10:54:52;;;;;;;1.10;0.45;;;14.70;86.80;;;;;;4934725;29;20080;-84
2022/11/08 10:57:26;;;;;;;2.05;0.70;;;14.70;86.70;;;;;;4934422;29;20072;-87
2022/11/08 10:59:55;;;;;;;1.38;0.70;;;14.60;86.00;;;;;;4934854;29;20052;-83
2022/11/08 11:02:27;;;;;;;2.58;0.55;;;14.60;85.80;;;;;;4933813;29;20036;-82
2022/11/08 11:05:31;;;;;;;2.55;0.70;;;14.60;86.40;;;;;;4934324;29;20400;-84
2022/11/08 11:08:07;;;;;;;2.47;0.50;;;14.60;86.40;;;;;;4902756;29;20090;-84
2022/11/08 11:10:40;;;;;;;1.00;0.50;;;14.50;86.60;;;;;;4944087;29;20396;-79
2022/11/08 11:13:17;;;;;;;2.00;0.60;;;14.50;86.80;;;;;;4934157;29;20467;-79
2022/11/08 11:15:52;;;;;;;1.33;0.60;;;14.50;86.60;;;;;;4933889;29;20068;-80
2022/11/08 11:18:33;;;;;;;1.90;0.50;;;14.50;86.80;;;;;;4921071;29;20453;-79
2022/11/08 11:21:21;;;;;;;0.98;0.32;;;14.50;86.80;;;;;;4928409;29;20096;-79
2022/11/08 11:23:52;;;;;;;1.25;0.40;;;14.50;86.40;;;;;;4917587;29;20131;-80
2022/11/08 11:26:28;;;;;;;2.35;0.50;;;14.50;86.70;;;;;;4917108;29;20071;-80
2022/11/08 11:29:06;;;;;;;2.35;0.63;;;14.60;86.60;;;;;;4933206;29;20047;-79
2022/11/08 11:31:41;;;;;;;3.78;0.75;;;14.60;85.70;;;;;;4917510;29;20409;-79
2022/11/08 11:34:18;;;;;;;2.40;0.65;;;14.60;85.80;;;;;;4902243;29;20044;-79
2022/11/08 11:36:50;;;;;;;2.30;0.70;;;14.70;85.80;;;;;;4917606;29;20044;-80
2022/11/08 11:39:41;;;;;;;1.13;0.40;;;14.70;85.80;;;;;;4933506;29;20044;-79
2022/11/08 11:42:17;;;;;;;1.20;0.52;;;14.80;85.80;;;;;;4936814;29;20044;-80
2022/11/08 11:45:15;;;;;;;3.70;0.40;;;14.90;85.90;;;;;;4917869;29;20428;-79
2022/11/08 11:47:46;;;;;;;1.30;0.40;;;14.90;85.80;;;;;;4933783;29;20058;-79
2022/11/08 11:50:37;;;;;;;1.33;0.47;;;14.90;85.60;;;;;;4949292;29;20103;-79
2022/11/08 11:53:11;;;;;;;2.25;0.40;;;15.00;85.70;;;;;;4933164;29;20071;-79
2022/11/08 11:56:07;;;;;;;2.15;0.70;;;15.00;85.30;;;;;;4934007;29;20052;-87
2022/11/08 11:58:50;;;;;;;1.30;0.40;;;15.10;85.20;;;;;;4933292;29;20078;-85
2022/11/08 12:01:35;;;;;;;1.02;0.40;;;15.10;85.20;;;;;;4933476;29;20051;-87
2022/11/08 12:04:35;;;;;;;2.20;0.40;;;15.10;85.00;;;;;;4941299;29;20032;-87
2022/11/08 12:07:17;;;;;;;1.67;0.45;;;15.20;85.00;;;;;;4934203;29;20058;-88
2022/11/08 12:10:02;;;;;;;1.65;0.50;;;15.30;84.60;;;;;;4933597;29;20076;-87
2022/11/08 12:12:48;;;;;;;1.60;0.50;;;15.40;84.30;;;;;;4902201;29;20055;-86
2022/11/08 12:15:21;;;;;;;1.38;0.40;;;15.50;84.10;;;;;;4933403;29;20048;-85
2022/11/08 12:18:18;;;;;;;1.20;0.50;;;15.50;83.70;;;;;;4930178;29;20051;-85
2022/11/08 12:21:37;;;;;;;2.65;0.60;;;15.60;84.20;;;;;;4930322;29;20100;-86
2022/11/08 12:24:13;;;;;;;2.45;0.50;;;15.70;83.10;;;;;;4901076;29;20044;-84
2022/11/08 12:27:10;;;;;;;2.30;0.55;;;15.70;83.20;;;;;;4917724;29;20474;-84
2022/11/08 12:29:49;;;;;;;1.65;0.40;;;15.80;83.30;;;;;;4884351;29;20123;-85
2022/11/08 12:32:33;;;;;;;1.40;0.50;;;15.90;83.20;;;;;;4917506;29;20050;-84
2022/11/08 12:35:10;;;;;;;3.50;0.68;;;16.00;83.00;;;;;;4932586;29;20044;-87
2022/11/08 12:37:46;;;;;;;4.15;0.70;;;16.00;82.10;;;;;;4913206;29;20053;-84
2022/11/08 12:48:37;;;;;;;2.95;0.60;;;15.90;82.60;;;;;;4909917;29;20036;-91
2022/11/08 12:52:06;;;;;;;2.92;0.50;;;15.80;82.80;;;;;;4935301;29;20128;-93
2022/11/08 12:55:02;;;;;;;1.52;0.40;;;15.70;83.10;;;;;;4936676;29;20039;-88
2022/11/08 12:58:20;;;;;;;3.03;0.60;;;15.60;83.50;;;;;;4921538;29;20117;-95
2022/11/08 13:01:09;;;;;;;1.50;0.55;;;15.50;83.60;;;;;;4933431;29;20050;-91
2022/11/08 13:03:45;;;;;;;2.35;0.52;;;15.40;83.50;;;;;;4916780;29;20124;-79
2022/11/08 13:06:40;;;;;;;1.75;0.50;;;15.30;83.50;;;;;;4932768;29;20048;-84
2022/11/08 13:09:32;;;;;;;2.08;0.43;;;15.30;83.60;;;;;;4948331;29;20036;-85
2022/11/08 13:12:24;;;;;;;1.25;0.50;;;15.30;83.70;;;;;;4932912;29;20056;-88
2022/11/08 13:14:52;;;;;;;2.10;0.53;;;15.30;83.90;;;;;;4933069;29;20143;-87
2022/11/08 13:17:25;;;;;;;3.22;0.60;;;15.30;84.20;;;;;;4913759;29;20093;-80
2022/11/08 13:19:59;;;;;;;1.02;0.50;;;15.30;84.00;;;;;;4916782;29;20056;-82
2022/11/08 13:22:34;;;;;;;2.42;0.47;;;15.30;83.90;;;;;;4931509;29;20044;-85
2022/11/08 13:25:07;;;;;;;1.88;0.43;;;15.30;83.70;;;;;;4916668;29;20103;-85
2022/11/08 13:27:42;;;;;;;0.88;0.30;;;15.40;83.70;;;;;;4932394;29;20052;-82
2022/11/08 13:30:28;;;;;;;1.60;0.60;;;15.40;83.80;;;;;;4947886;29;20054;-90
2022/11/08 13:33:27;;;;;;;0.88;0.30;;;15.40;83.70;;;;;;4931159;29;20059;-90
2022/11/08 13:36:32;;;;;;;1.02;0.30;;;15.50;83.70;;;;;;4917948;29;20052;-89
2022/11/08 13:39:30;;;;;;;1.73;0.45;;;15.50;83.60;;;;;;4930689;29;20406;-86
2022/11/08 13:42:30;;;;;;;1.33;0.32;;;15.50;83.60;;;;;;4921731;29;20067;-86
2022/11/08 13:45:10;;;;;;;1.15;0.40;;;15.50;83.50;;;;;;4944180;29;20059;-86
2022/11/08 13:47:38;;;;;;;2.55;0.50;;;15.50;83.60;;;;;;4916400;29;20052;-86